Etusivu
METAR-TAF:

METAR-TAF

Lentoasemat :

Strother Field

Winfield / Arkansas City, Kansas, Yhdysvallat

Leveyspiiri: 37-10-05N, Pituuspiiri: 097-02-13W, korkeus merenpinnasta: 353 m

Tämänhetkinen sää

Tämä raportti tehtiin 58 minuuttia sitten, kello 13.54 UTC
Tuuli 6 kn kaakosta
Lämpötila 27°C
Kosteus 74%
Ilmanpaine 1017 hPa
Näkyvyys: 16.1 km
selkeää

METAR: KWLD 141354Z AUTO 13006KT 10SM CLR 27/22 A3003 RMK AO2 SLP156 T02670222

Aika: 09:52 (14:52 UTC)


TAF: puuttuu

Säähavainnot ja -ennusteet yli 4000 lentoasemalta (METAR- ja TAF-raportit).

Käytössä olevat sääasemat on merkitty karttaan keltaisilla ja punaisilla pisteillä.

Aseta hiiri pisteen päälle nähdäksesi sääaseman nimen.

Klikkaa sitten nähdäksesi säähavainnot ja -ennusteet.

Kartan vaihtaminen: klikkaa mustalla rastilla varustettuja vihreitä pisteitä, niin voit zoomata sisään; viivalla varustettua vihreää pistettä, niin voit zoomata ulos tai vihreitä nuolia, niin pääset viereisille kartoille.


METAR-TAF: